This is the latest recevied weather packets stored in our database for station/object CE3UOB-10. If no packets are shown the sender has not sent any weather packets the latest 10 day(s).
| Time | Temp. | Humidity | Pressure | Rain* | Wind** | Luminosity | Snow |
|---|---|---|---|---|---|---|---|
| 1778094497 | 15° C | 91% | 997.4 hPa | - | - | - | - |
| 1778092697 | 15° C | 90% | 997.2 hPa | - | - | - | - |
| 1778090897 | 15° C | 89% | 997.2 hPa | - | - | - | - |
| 1778089097 | 15° C | 89% | 997.4 hPa | - | - | - | - |
| 1778087297 | 14.44° C | 89% | 997.4 hPa | - | - | - | - |
| 1778085496 | 15° C | 85% | 997.3 hPa | - | - | - | - |
| 1778083704 | 14.44° C | 86% | 997 hPa | - | - | - | - |
| 1778083699 | 14.44° C | 86% | 997 hPa | - | - | - | - |
| 1778081904 | 14.44° C | 86% | 996.8 hPa | - | - | - | - |
| 1778081898 | 14.44° C | 86% | 996.8 hPa | - | - | - | - |
| 1778080104 | 14.44° C | 84% | 996.2 hPa | - | - | - | - |
| 1778080098 | 14.44° C | 84% | 996.2 hPa | - | - | - | - |
| 1778078304 | 15.56° C | 77% | 994.9 hPa | - | - | - | - |
| 1778078298 | 15.56° C | 77% | 994.9 hPa | - | - | - | - |
| 1778076505 | 15° C | 70% | 995.2 hPa | - | - | - | - |
| 1778076498 | 15° C | 70% | 995.2 hPa | - | - | - | - |
| 1778074704 | 15° C | 67% | 995 hPa | - | - | - | - |
| 1778074698 | 15° C | 67% | 995 hPa | - | - | - | - |
| 1778072904 | 15° C | 68% | 995.5 hPa | - | - | - | - |
| 1778072897 | 15° C | 68% | 995.5 hPa | - | - | - | - |
| 1778071104 | 13.89° C | 66% | 995.1 hPa | - | - | - | - |
| 1778071097 | 13.89° C | 66% | 995.1 hPa | - | - | - | - |
| 1778069304 | 11.67° C | 72% | 995 hPa | - | - | - | - |
| 1778069297 | 11.67° C | 72% | 995 hPa | - | - | - | - |
| 1778067504 | 10.56° C | 71% | 994.8 hPa | - | - | - | - |
* Rain since midnight (hover to see other rain measurements)
** Current wind speed in m/s (hover to see current wind gust speed)